Time;durP1;ratioP1;P1;durP2;ratioP2;P2;SDS_P1;SDS_P2;PMS_P1;PMS_P2;Temp;Humidity;BMP_temperature;BMP_pressure;BME280_temperature;BME280_humidity;BME280_pressure;Samples;Min_cycle;Max_cycle;Signal;HPM_P1;HPM_P2
2023/12/01 00:00:52;;;;;;;167.80;108.70;;;;;;;-0.60;100.00;97527.97;109570;1251;65066;-71
2023/12/01 00:03:38;;;;;;;182.60;113.90;;;;;;;-0.56;100.00;97534.25;109541;1251;58933;-71
2023/12/01 00:06:06;;;;;;;174.20;110.30;;;;;;;-0.53;100.00;97533.76;108761;1251;1002604;-71
2023/12/01 00:08:32;;;;;;;173.60;110.20;;;;;;;-0.51;100.00;97527.55;109562;1251;67104;-72
2023/12/01 00:10:59;;;;;;;168.00;106.20;;;;;;;-0.49;100.00;97531.64;109571;1251;61086;-71
2023/12/01 00:13:26;;;;;;;172.40;108.20;;;;;;;-0.49;100.00;97538.77;109515;1251;64055;-71
2023/12/01 00:15:53;;;;;;;171.20;107.50;;;;;;;-0.49;100.00;97546.99;109499;1251;58924;-70
2023/12/01 00:18:20;;;;;;;169.40;107.40;;;;;;;-0.50;100.00;97550.34;109538;1251;58953;-71
2023/12/01 00:20:46;;;;;;;163.20;106.80;;;;;;;-0.50;100.00;97548.77;109548;1250;65775;-71
2023/12/01 00:23:13;;;;;;;171.20;109.40;;;;;;;-0.50;100.00;97543.54;109376;1250;60604;-71
2023/12/01 00:25:40;;;;;;;179.90;110.70;;;;;;;-0.48;100.00;97542.61;109539;1251;65063;-71
2023/12/01 00:28:06;;;;;;;163.00;104.70;;;;;;;-0.46;100.00;97542.16;109542;1251;58988;-71
2023/12/01 00:30:33;;;;;;;167.30;107.40;;;;;;;-0.44;100.00;97540.84;109569;1251;58899;-70
2023/12/01 00:32:59;;;;;;;167.50;104.60;;;;;;;-0.44;100.00;97539.63;109558;1251;66139;-71
2023/12/01 00:35:26;;;;;;;164.20;103.30;;;;;;;-0.45;100.00;97540.16;109571;1250;61330;-72
2023/12/01 00:37:53;;;;;;;168.90;104.20;;;;;;;-0.46;100.00;97542.84;109552;1253;64147;-71
2023/12/01 00:40:20;;;;;;;156.40;100.90;;;;;;;-0.51;100.00;97529.46;109524;1251;60925;-70
2023/12/01 00:42:46;;;;;;;168.20;105.70;;;;;;;-0.55;100.00;97523.01;109559;1251;59110;-71
2023/12/01 00:45:15;;;;;;;167.60;105.70;;;;;;;-0.54;100.00;97528.41;109581;1251;65950;-71
2023/12/01 00:47:42;;;;;;;171.30;109.50;;;;;;;-0.53;100.00;97534.63;109557;1254;60053;-71
2023/12/01 00:50:09;;;;;;;174.00;107.90;;;;;;;-0.52;100.00;97538.77;109536;1251;64794;-70
2023/12/01 00:52:36;;;;;;;173.40;107.00;;;;;;;-0.53;100.00;97544.55;109492;1251;58953;-71
2023/12/01 00:55:02;;;;;;;177.60;108.50;;;;;;;-0.54;100.00;97554.36;109529;1251;59078;-71
2023/12/01 00:57:29;;;;;;;168.80;108.90;;;;;;;-0.54;100.00;97544.05;109589;1251;67186;-71
2023/12/01 00:59:55;;;;;;;169.00;109.50;;;;;;;-0.54;100.00;97536.93;109357;1256;61082;-70
2023/12/01 01:02:22;;;;;;;168.20;106.30;;;;;;;-0.54;100.00;97538.85;109504;1251;65018;-71
2023/12/01 01:04:48;;;;;;;171.80;109.70;;;;;;;-0.53;100.00;97541.44;109555;1251;58907;-71
2023/12/01 01:07:15;;;;;;;172.00;110.20;;;;;;;-0.54;100.00;97544.93;109590;1251;59020;-71
2023/12/01 01:09:42;;;;;;;183.80;117.10;;;;;;;-0.54;100.00;97548.27;109569;1251;67032;-70
2023/12/01 01:12:08;;;;;;;173.00;109.80;;;;;;;-0.55;100.00;97550.08;109555;1251;60979;-71
2023/12/01 01:14:35;;;;;;;170.10;111.00;;;;;;;-0.58;100.00;97558.55;108800;1251;1002275;-71
2023/12/01 01:17:02;;;;;;;174.40;108.30;;;;;;;-0.59;100.00;97566.49;109489;1251;58982;-71
2023/12/01 01:19:28;;;;;;;177.30;112.60;;;;;;;-0.60;100.00;97565.13;109506;1251;59220;-71
2023/12/01 01:21:55;;;;;;;182.20;112.60;;;;;;;-0.59;100.00;97565.44;109535;1251;65967;-71
2023/12/01 01:24:21;;;;;;;169.10;108.20;;;;;;;-0.58;100.00;97564.52;109403;1251;59740;-71
2023/12/01 01:26:48;;;;;;;169.10;109.50;;;;;;;-0.58;100.00;97566.08;109527;1251;65270;-71
2023/12/01 01:29:14;;;;;;;174.80;119.20;;;;;;;-0.57;100.00;97574.59;109489;1251;59026;-72
2023/12/01 01:31:41;;;;;;;172.40;117.40;;;;;;;-0.58;100.00;97577.77;109596;1250;60030;-72
2023/12/01 01:34:08;;;;;;;171.60;120.90;;;;;;;-0.60;100.00;97580.64;109496;1251;67266;-71
2023/12/01 01:36:35;;;;;;;178.90;124.10;;;;;;;-0.62;100.00;97588.44;109554;1250;60041;-72
2023/12/01 01:39:01;;;;;;;171.80;122.40;;;;;;;-0.65;100.00;97579.13;109549;1251;65131;-71
2023/12/01 01:41:28;;;;;;;169.20;119.70;;;;;;;-0.66;100.00;97565.04;109542;1251;58966;-71
2023/12/01 01:43:55;;;;;;;172.00;116.30;;;;;;;-0.66;100.00;97557.38;109539;1251;59089;-72
2023/12/01 01:46:22;;;;;;;158.40;106.30;;;;;;;-0.65;100.00;97552.95;109503;1251;67020;-71
2023/12/01 01:48:49;;;;;;;153.30;107.80;;;;;;;-0.65;100.00;97551.40;109560;1253;60002;-72
2023/12/01 01:51:15;;;;;;;150.20;103.60;;;;;;;-0.65;100.00;97541.98;109583;1251;65336;-72
2023/12/01 01:53:42;;;;;;;146.80;102.50;;;;;;;-0.65;100.00;97538.83;109567;1251;59561;-71
2023/12/01 01:56:14;;;;;;;135.00;97.10;;;;;;;-0.64;100.00;97538.42;109569;1251;59227;-71
2023/12/01 01:58:41;;;;;;;139.90;96.10;;;;;;;-0.64;100.00;97541.23;109556;1251;66741;-70
2023/12/01 02:01:08;;;;;;;137.90;94.00;;;;;;;-0.65;100.00;97545.46;109578;1250;61235;-72
2023/12/01 02:03:35;;;;;;;135.00;92.30;;;;;;;-0.65;100.00;97552.96;109531;1251;64019;-71
2023/12/01 02:06:07;;;;;;;129.60;91.20;;;;;;;-0.65;100.00;97565.02;109269;1251;59128;-72
2023/12/01 02:08:34;;;;;;;131.70;91.70;;;;;;;-0.67;100.00;97572.41;109555;1251;58936;-71
2023/12/01 02:11:01;;;;;;;132.90;92.30;;;;;;;-0.69;100.00;97572.31;109529;1255;67063;-71
2023/12/01 02:13:28;;;;;;;131.80;90.60;;;;;;;-0.69;100.00;97566.02;109550;1251;60141;-71
2023/12/01 02:15:55;;;;;;;133.30;90.10;;;;;;;-0.69;100.00;97571.27;109574;1251;65071;-71
2023/12/01 02:18:25;;;;;;;126.20;86.70;;;;;;;-0.68;100.00;97584.84;109270;1251;59069;-71
2023/12/01 02:20:54;;;;;;;122.90;85.40;;;;;;;-0.69;100.00;97591.82;109605;1251;58973;-71
2023/12/01 02:23:21;;;;;;;136.60;90.20;;;;;;;-0.69;100.00;97596.39;109568;1251;67093;-71
2023/12/01 02:25:48;;;;;;;133.90;92.50;;;;;;;-0.71;100.00;97590.36;109546;1251;60112;-71
2023/12/01 02:28:16;;;;;;;131.20;92.00;;;;;;;-0.73;100.00;97580.69;109543;1251;64033;-73
2023/12/01 02:30:54;;;;;;;139.60;95.20;;;;;;;-0.74;100.00;97571.66;109501;1250;59409;-72
2023/12/01 02:33:22;;;;;;;132.80;89.80;;;;;;;-0.74;100.00;97570.47;109343;1251;59143;-72
2023/12/01 02:35:50;;;;;;;121.90;86.50;;;;;;;-0.74;100.00;97580.23;109526;1251;64735;-72
2023/12/01 02:38:18;;;;;;;125.70;87.00;;;;;;;-0.76;100.00;97583.45;109554;1251;60106;-72
2023/12/01 02:40:51;;;;;;;129.90;90.30;;;;;;;-0.76;100.00;97582.77;109535;1251;65006;-72
2023/12/01 02:43:20;;;;;;;127.40;89.20;;;;;;;-0.77;100.00;97568.47;109520;1251;58979;-72
2023/12/01 02:45:46;;;;;;;134.50;90.60;;;;;;;-0.79;100.00;97566.15;109571;1251;59816;-72
2023/12/01 02:48:14;;;;;;;131.00;90.90;;;;;;;-0.82;100.00;97582.14;109579;1251;67411;-71
2023/12/01 02:50:41;;;;;;;131.90;90.60;;;;;;;-0.82;100.00;97579.70;108821;1251;1002408;-71
2023/12/01 02:53:07;;;;;;;131.20;90.20;;;;;;;-0.82;100.00;97576.59;109549;1251;65169;-72
2023/12/01 02:55:34;;;;;;;127.40;87.30;;;;;;;-0.83;100.00;97576.09;109550;1251;59066;-72
2023/12/01 02:58:01;;;;;;;130.20;89.20;;;;;;;-0.83;100.00;97581.66;109585;1251;59091;-71
2023/12/01 03:00:33;;;;;;;136.30;89.10;;;;;;;-0.83;100.00;97580.27;109588;1251;66685;-71
2023/12/01 03:03:00;;;;;;;122.80;84.30;;;;;;;-0.83;100.00;97577.67;109540;1251;60824;-71
2023/12/01 03:05:27;;;;;;;137.60;86.90;;;;;;;-0.87;100.00;97576.60;109567;1251;63979;-71
2023/12/01 03:07:54;;;;;;;126.40;86.90;;;;;;;-0.92;100.00;97583.80;109551;1254;59089;-71
2023/12/01 03:10:20;;;;;;;120.80;84.40;;;;;;;-0.96;100.00;97589.90;109548;1250;58870;-71
2023/12/01 03:12:47;;;;;;;128.90;83.50;;;;;;;-0.98;100.00;97580.58;109508;1251;64997;-71
2023/12/01 03:15:20;;;;;;;123.60;83.80;;;;;;;-1.00;100.00;97572.14;109560;1251;59809;-71
2023/12/01 03:17:47;;;;;;;127.50;85.10;;;;;;;-1.04;100.00;97572.12;109588;1251;65192;-71
2023/12/01 03:20:15;;;;;;;119.00;82.50;;;;;;;-1.08;100.00;97578.39;109577;1251;58981;-71
2023/12/01 03:22:44;;;;;;;118.20;84.00;;;;;;;-1.10;100.00;97586.66;109548;1251;58876;-71
2023/12/01 03:25:11;;;;;;;121.40;83.40;;;;;;;-1.09;100.00;97588.38;109532;1251;67321;-71
2023/12/01 03:27:45;;;;;;;126.70;92.40;;;;;;;-1.08;100.00;97595.31;109504;1251;59082;-71
2023/12/01 03:30:14;;;;;;;132.70;91.50;;;;;;;-1.07;100.00;97602.07;109537;1251;64747;-71
2023/12/01 03:32:46;;;;;;;140.30;98.50;;;;;;;-1.06;100.00;97603.75;109505;1251;59009;-72
2023/12/01 03:35:14;;;;;;;135.70;95.60;;;;;;;-1.05;100.00;97597.44;109568;1251;59012;-72
2023/12/01 03:37:41;;;;;;;148.60;99.50;;;;;;;-1.04;100.00;97582.57;109540;1250;66062;-71
2023/12/01 03:40:12;;;;;;;128.90;94.00;;;;;;;-1.05;100.00;97570.94;109578;1251;60081;-71
2023/12/01 03:42:41;;;;;;;138.60;96.10;;;;;;;-1.07;100.00;97569.27;109544;1251;65049;-72
2023/12/01 03:45:10;;;;;;;145.20;101.30;;;;;;;-1.07;100.00;97570.17;109543;1251;59110;-72
2023/12/01 03:47:42;;;;;;;140.50;99.40;;;;;;;-1.09;100.00;97575.98;109544;1251;59074;-71
2023/12/01 03:50:12;;;;;;;126.60;88.30;;;;;;;-1.12;100.00;97587.79;109614;1251;66994;-72
2023/12/01 03:52:45;;;;;;;120.90;84.40;;;;;;;-1.15;100.00;97586.70;109583;1251;59892;-72
2023/12/01 03:55:13;;;;;;;130.20;90.90;;;;;;;-1.18;100.00;97586.14;109379;1251;173618;-72
2023/12/01 03:57:42;;;;;;;136.70;92.40;;;;;;;-1.20;100.00;97581.16;109519;1251;58925;-72
2023/12/01 04:00:13;;;;;;;133.70;92.40;;;;;;;-1.19;100.00;97582.15;109543;1251;58999;-72
2023/12/01 04:02:42;;;;;;;136.70;94.40;;;;;;;-1.16;100.00;97579.25;109389;1251;65721;-72
2023/12/01 04:05:17;;;;;;;131.60;93.80;;;;;;;-1.14;100.00;97575.48;109258;1251;60042;-72
2023/12/01 04:07:50;;;;;;;143.70;99.20;;;;;;;-1.12;100.00;97576.80;109484;1252;65093;-71
2023/12/01 04:10:16;;;;;;;146.10;100.10;;;;;;;-1.10;100.00;97582.46;108022;1251;1002292;-72
2023/12/01 04:12:47;;;;;;;147.50;102.80;;;;;;;-1.08;100.00;97575.75;109502;1251;59128;-72
2023/12/01 04:15:15;;;;;;;150.90;104.70;;;;;;;-1.06;100.00;97582.30;109584;1251;66742;-71
2023/12/01 04:17:43;;;;;;;158.40;110.60;;;;;;;-1.04;100.00;97582.05;109519;1255;61047;-72
2023/12/01 04:20:25;;;;;;;152.90;106.20;;;;;;;-1.01;100.00;97575.14;109552;1251;63581;-71
2023/12/01 04:23:02;;;;;;;162.30;109.70;;;;;;;-0.98;100.00;97579.34;109503;1251;58990;-71
2023/12/01 04:25:29;;;;;;;158.20;109.90;;;;;;;-0.95;100.00;97578.70;109545;1251;58977;-71
2023/12/01 04:27:58;;;;;;;158.50;111.20;;;;;;;-0.93;100.00;97570.23;109587;1251;67367;-71
2023/12/01 04:30:25;;;;;;;161.30;110.50;;;;;;;-0.90;100.00;97564.00;109573;1251;60122;-71
2023/12/01 04:32:53;;;;;;;160.90;111.70;;;;;;;-0.87;100.00;97567.55;109588;1251;65130;-72
2023/12/01 04:35:21;;;;;;;166.80;111.60;;;;;;;-0.86;100.00;97573.09;109600;1251;59139;-71
2023/12/01 04:37:48;;;;;;;163.60;113.40;;;;;;;-0.86;100.00;97566.64;109530;1251;59417;-71
2023/12/01 04:40:15;;;;;;;162.30;113.60;;;;;;;-0.86;100.00;97569.26;109523;1251;67135;-71
2023/12/01 04:42:46;;;;;;;172.20;116.40;;;;;;;-0.86;100.00;97573.27;109533;1251;60365;-71
2023/12/01 04:45:17;;;;;;;166.10;116.70;;;;;;;-0.84;100.00;97578.75;109352;1251;64138;-71
2023/12/01 04:47:50;;;;;;;171.80;116.00;;;;;;;-0.83;100.00;97587.77;109568;1251;58901;-71
2023/12/01 04:50:18;;;;;;;176.80;121.60;;;;;;;-0.83;100.00;97574.67;109629;1251;59071;-72
2023/12/01 04:52:58;;;;;;;165.00;116.90;;;;;;;-0.82;100.00;97564.17;109527;1251;67047;-71
2023/12/01 04:55:27;;;;;;;172.00;114.50;;;;;;;-0.82;100.00;97570.45;109498;1251;61452;-72
2023/12/01 04:57:58;;;;;;;159.40;110.80;;;;;;;-0.83;100.00;97565.13;109555;1251;63981;-72
2023/12/01 05:00:26;;;;;;;167.10;115.70;;;;;;;-0.85;100.00;97562.59;109519;1251;58935;-72
2023/12/01 05:03:00;;;;;;;170.20;115.60;;;;;;;-0.87;100.00;97560.05;109555;1251;58926;-71
2023/12/01 05:05:31;;;;;;;178.70;124.80;;;;;;;-0.90;100.00;97558.05;109566;1251;66254;-71
2023/12/01 05:07:59;;;;;;;181.00;125.10;;;;;;;-0.89;100.00;97567.98;109560;1251;60361;-72
2023/12/01 05:10:28;;;;;;;169.50;121.30;;;;;;;-0.89;100.00;97577.18;109572;1251;64079;-70
2023/12/01 05:12:56;;;;;;;167.80;115.70;;;;;;;-0.90;100.00;97571.13;109516;1251;59291;-71
2023/12/01 05:15:25;;;;;;;180.20;120.40;;;;;;;-0.91;100.00;97566.68;109544;1251;58899;-71
2023/12/01 05:17:56;;;;;;;168.40;116.00;;;;;;;-0.92;100.00;97568.48;109534;1251;67268;-71
2023/12/01 05:20:27;;;;;;;175.40;121.30;;;;;;;-0.92;100.00;97566.20;109554;1251;61481;-71
2023/12/01 05:22:58;;;;;;;177.10;120.10;;;;;;;-0.91;100.00;97576.04;109521;1251;65009;-71
2023/12/01 05:25:27;;;;;;;183.20;123.60;;;;;;;-0.90;100.00;97581.95;109535;1251;59791;-71
2023/12/01 05:27:55;;;;;;;186.60;125.30;;;;;;;-0.88;100.00;97582.05;109553;1251;59145;-71
2023/12/01 05:30:26;;;;;;;182.30;121.00;;;;;;;-0.86;100.00;97592.29;109547;1251;65952;-71
2023/12/01 05:32:54;;;;;;;174.90;117.70;;;;;;;-0.88;100.00;97602.97;109586;1251;61096;-71
2023/12/01 05:35:22;;;;;;;186.20;124.10;;;;;;;-0.90;100.00;97601.82;109550;1251;65036;-71
2023/12/01 05:37:51;;;;;;;191.80;128.70;;;;;;;-0.90;100.00;97594.67;109352;1251;59232;-72
2023/12/01 05:40:28;;;;;;;182.60;126.60;;;;;;;-0.88;100.00;97594.61;109612;1251;59034;-71
2023/12/01 05:42:57;;;;;;;187.40;124.80;;;;;;;-0.87;100.00;97603.62;109553;1250;65981;-72
2023/12/01 05:45:26;;;;;;;187.90;126.80;;;;;;;-0.86;100.00;97601.86;109251;1251;62059;-72
2023/12/01 05:47:54;;;;;;;181.70;119.60;;;;;;;-0.86;100.00;97596.11;109558;1251;63973;-71
2023/12/01 05:50:23;;;;;;;175.50;118.30;;;;;;;-0.87;100.00;97597.53;109573;1251;59194;-72
2023/12/01 05:52:52;;;;;;;171.40;115.70;;;;;;;-0.89;100.00;97601.81;109535;1251;59414;-72
2023/12/01 05:55:22;;;;;;;181.60;120.50;;;;;;;-0.91;100.00;97607.11;109563;1251;67292;-72
2023/12/01 05:57:53;;;;;;;196.30;129.50;;;;;;;-0.91;100.00;97605.35;109575;1251;60167;-71
2023/12/01 06:00:29;;;;;;;200.40;134.20;;;;;;;-0.88;100.00;97599.13;109572;1251;64020;-71
2023/12/01 06:03:06;;;;;;;198.70;134.10;;;;;;;-0.85;100.00;97595.00;109399;1251;59634;-71
2023/12/01 06:05:33;;;;;;;195.70;133.80;;;;;;;-0.84;100.00;97597.05;109576;1251;59113;-72
2023/12/01 06:08:02;;;;;;;207.20;138.20;;;;;;;-0.83;100.00;97603.31;109556;1251;67026;-72
2023/12/01 06:10:31;;;;;;;208.70;140.00;;;;;;;-0.82;100.00;97602.20;109565;1250;61027;-71
2023/12/01 06:12:58;;;;;;;203.60;140.70;;;;;;;-0.81;100.00;97605.13;109568;1251;64961;-71
2023/12/01 06:15:29;;;;;;;206.80;140.10;;;;;;;-0.81;100.00;97605.98;109566;1251;58926;-72
2023/12/01 06:17:57;;;;;;;200.70;138.00;;;;;;;-0.81;100.00;97603.52;109510;1251;59113;-72
2023/12/01 06:20:24;;;;;;;208.40;141.00;;;;;;;-0.81;100.00;97601.97;109540;1251;67053;-72
2023/12/01 06:22:56;;;;;;;213.70;141.40;;;;;;;-0.82;100.00;97601.48;109353;1251;59458;-72
2023/12/01 06:25:27;;;;;;;209.10;138.10;;;;;;;-0.83;100.00;97597.18;109353;1251;63747;-71
2023/12/01 06:27:58;;;;;;;206.20;135.90;;;;;;;-0.85;100.00;97596.07;109514;1251;59034;-71
2023/12/01 06:30:26;;;;;;;199.70;138.00;;;;;;;-0.86;100.00;97609.71;109533;1251;59030;-72
2023/12/01 06:32:53;;;;;;;206.00;138.00;;;;;;;-0.87;100.00;97620.73;109563;1251;67036;-72
2023/12/01 06:35:21;;;;;;;219.50;144.70;;;;;;;-0.87;100.00;97622.63;109249;1251;61223;-72
2023/12/01 06:37:48;;;;;;;213.60;143.10;;;;;;;-0.87;100.00;97625.09;109567;1251;65584;-71
2023/12/01 06:40:16;;;;;;;211.20;143.60;;;;;;;-0.88;100.00;97625.79;109598;1251;59286;-75
2023/12/01 06:42:52;;;;;;;211.40;142.30;;;;;;;-0.88;100.00;97619.36;109372;1251;59157;-73
2023/12/01 06:45:28;;;;;;;206.20;141.60;;;;;;;-0.87;100.00;97617.23;109417;1250;64584;-72
2023/12/01 06:47:58;;;;;;;203.30;138.10;;;;;;;-0.84;100.00;97618.33;109625;1251;61724;-73
2023/12/01 06:50:26;;;;;;;;;;;;;;;-0.82;100.00;97606.20;109540;1251;65332;-73
2023/12/01 06:52:53;;;;;;;191.40;126.60;;;;;;;-0.80;100.00;97607.33;109396;1251;59297;-75
2023/12/01 06:55:20;;;;;;;184.80;130.10;;;;;;;-0.76;100.00;97610.83;109369;1252;59515;-74
2023/12/01 06:57:49;;;;;;;190.90;133.10;;;;;;;-0.74;100.00;97618.05;109559;1251;67053;-73
2023/12/01 07:00:29;;;;;;;197.30;134.40;;;;;;;-0.72;100.00;97618.48;109584;1251;60037;-73
2023/12/01 07:02:57;;;;;;;204.20;140.50;;;;;;;-0.69;100.00;97615.39;109535;1251;65049;-73
2023/12/01 07:05:25;;;;;;;215.00;145.10;;;;;;;-0.64;100.00;97615.54;109544;1251;58928;-73
2023/12/01 07:07:56;;;;;;;195.50;134.60;;;;;;;-0.57;100.00;97623.60;109538;1251;58888;-73
2023/12/01 07:10:24;;;;;;;204.90;140.30;;;;;;;-0.51;100.00;97625.61;108797;1251;1002660;-73
2023/12/01 07:12:52;;;;;;;207.40;139.40;;;;;;;-0.42;100.00;97632.02;109607;1250;61007;-73
2023/12/01 07:15:20;;;;;;;194.40;134.80;;;;;;;-0.33;100.00;97643.80;109561;1251;65007;-74
2023/12/01 07:17:50;;;;;;;204.50;141.00;;;;;;;-0.25;100.00;97642.41;109571;1251;58944;-73
2023/12/01 07:20:18;;;;;;;204.80;136.10;;;;;;;-0.18;100.00;97634.05;109588;1251;59056;-73
2023/12/01 07:22:49;;;;;;;186.60;132.20;;;;;;;-0.10;100.00;97637.73;109291;1251;67055;-73
2023/12/01 07:25:23;;;;;;;176.80;126.30;;;;;;;-0.04;100.00;97647.55;109559;1251;61075;-73
2023/12/01 07:27:58;;;;;;;181.10;125.70;;;;;;;0.01;100.00;97659.06;109535;1251;65125;-73
2023/12/01 07:30:27;;;;;;;177.40;124.60;;;;;;;0.03;100.00;97665.21;109546;1251;58960;-74
2023/12/01 07:32:54;;;;;;;181.80;127.70;;;;;;;0.06;100.00;97668.41;109584;1251;59002;-73
2023/12/01 07:35:21;;;;;;;200.50;136.40;;;;;;;0.09;100.00;97655.50;109572;1251;67069;-74
2023/12/01 07:37:51;;;;;;;179.20;127.20;;;;;;;0.14;100.00;97649.49;109567;1251;60048;-73
2023/12/01 07:40:22;;;;;;;;;;;;;;;0.20;100.00;97645.89;109574;1251;65112;-73
2023/12/01 07:42:51;;;;;;;178.90;124.40;;;;;;;0.27;100.00;97645.77;109338;1251;58962;-74
2023/12/01 07:45:18;;;;;;;182.20;127.70;;;;;;;0.35;100.00;97641.05;109531;1251;58973;-74
2023/12/01 07:47:50;;;;;;;192.60;136.50;;;;;;;0.41;100.00;97636.20;109558;1251;66136;-73
2023/12/01 07:50:18;;;;;;;202.60;144.40;;;;;;;0.47;100.00;97634.70;109616;1251;60012;-72
2023/12/01 07:52:50;;;;;;;224.90;155.70;;;;;;;0.52;100.00;97632.34;109531;1251;65219;-72
2023/12/01 07:55:19;;;;;;;220.30;159.10;;;;;;;0.58;100.00;97637.98;109561;1251;59186;-72
2023/12/01 07:57:46;;;;;;;218.40;154.50;;;;;;;0.67;100.00;97647.17;109355;1251;59439;-73
2023/12/01 08:00:16;;;;;;;214.60;152.60;;;;;;;0.79;100.00;97661.09;109568;1251;66990;-73
2023/12/01 08:02:43;;;;;;;;;;;;;;;0.92;100.00;97670.45;109401;1251;61216;-72
2023/12/01 08:05:13;;;;;;;189.20;129.50;;;;;;;0.98;100.00;97678.20;109599;1251;65012;-73
2023/12/01 08:07:51;;;;;;;167.80;119.10;;;;;;;1.01;100.00;97672.76;109536;1251;58970;-72
2023/12/01 08:10:19;;;;;;;173.80;115.10;;;;;;;1.02;100.00;97670.95;109610;1251;59029;-72
2023/12/01 08:12:47;;;;;;;166.10;113.90;;;;;;;1.04;100.00;97660.05;109558;1251;65807;-72
2023/12/01 08:15:14;;;;;;;157.70;111.80;;;;;;;1.07;100.00;97659.35;109564;1251;60135;-72
2023/12/01 08:17:43;;;;;;;150.50;105.80;;;;;;;1.11;100.00;97663.18;109521;1251;64995;-73
2023/12/01 08:20:10;;;;;;;150.90;106.60;;;;;;;1.15;100.00;97661.61;109544;1251;59241;-72
2023/12/01 08:22:37;;;;;;;145.40;104.60;;;;;;;1.20;100.00;97662.23;109343;1251;59912;-72
2023/12/01 08:25:05;;;;;;;135.00;99.30;;;;;;;1.24;100.00;97662.02;109552;1251;67063;-73
2023/12/01 08:27:33;;;;;;;127.40;91.80;;;;;;;1.31;100.00;97657.48;109599;1251;60065;-72
2023/12/01 08:29:59;;;;;;;123.30;89.30;;;;;;;1.37;100.00;97664.14;109593;1251;64278;-72
2023/12/01 08:32:26;;;;;;;118.80;89.30;;;;;;;1.43;100.00;97663.67;109532;1251;59040;-72
2023/12/01 08:34:54;;;;;;;134.20;95.30;;;;;;;1.46;100.00;97666.63;109551;1251;59060;-71
2023/12/01 08:37:21;;;;;;;128.80;95.70;;;;;;;1.56;100.00;97668.07;109535;1251;66974;-72
2023/12/01 08:39:49;;;;;;;125.00;92.50;;;;;;;1.67;100.00;97675.21;109611;1251;61213;-72
2023/12/01 08:42:16;;;;;;;131.80;96.20;;;;;;;1.77;100.00;97680.12;109534;1250;64154;-71
2023/12/01 08:44:42;;;;;;;149.80;107.30;;;;;;;1.86;100.00;97680.32;109569;1251;58991;-72
2023/12/01 08:47:09;;;;;;;154.80;113.90;;;;;;;1.94;100.00;97687.62;109568;1251;58885;-72
2023/12/01 08:49:36;;;;;;;154.90;112.60;;;;;;;1.96;100.00;97699.25;109540;1251;65818;-72
2023/12/01 08:52:03;;;;;;;155.30;117.60;;;;;;;1.95;100.00;97694.72;109645;1251;59800;-72
2023/12/01 08:54:30;;;;;;;152.50;112.40;;;;;;;1.99;100.00;97691.89;109519;1251;65151;-72
2023/12/01 08:56:58;;;;;;;135.40;102.20;;;;;;;2.08;100.00;97697.54;109512;1251;59266;-72
2023/12/01 08:59:27;;;;;;;129.90;97.20;;;;;;;2.17;100.00;97692.86;109528;1251;59013;-72
2023/12/01 09:01:53;;;;;;;132.90;103.10;;;;;;;2.18;100.00;97684.38;109562;1250;66078;-72
2023/12/01 09:04:21;;;;;;;129.90;97.90;;;;;;;2.19;100.00;97687.98;109584;1253;61184;-71
2023/12/01 09:06:47;;;;;;;130.90;103.20;;;;;;;2.23;100.00;97691.86;109577;1251;65101;-72
2023/12/01 09:09:14;;;;;;;120.90;90.90;;;;;;;2.29;100.00;97690.66;109559;1251;59017;-71
2023/12/01 09:11:40;;;;;;;115.70;88.20;;;;;;;2.26;100.00;97696.04;109567;1251;59255;-71
2023/12/01 09:14:07;;;;;;;109.80;83.10;;;;;;;2.21;100.00;97683.00;109524;1251;67018;-72
2023/12/01 09:16:34;;;;;;;99.80;76.10;;;;;;;2.22;100.00;97668.42;109561;1251;61394;-72
2023/12/01 09:19:00;;;;;;;94.70;68.60;;;;;;;2.30;100.00;97673.40;108780;1251;1002444;-71
2023/12/01 09:21:27;;;;;;;86.70;66.20;;;;;;;2.39;100.00;97669.59;109503;1251;59390;-72
2023/12/01 09:23:53;;;;;;;83.80;61.40;;;;;;;2.43;100.00;97668.34;109576;1251;59179;-71
2023/12/01 09:26:20;;;;;;;83.20;61.50;;;;;;;2.43;100.00;97671.64;109576;1251;66964;-71
2023/12/01 09:28:48;;;;;;;84.90;62.20;;;;;;;2.43;100.00;97678.45;109574;1251;61095;-71
2023/12/01 09:31:15;;;;;;;76.70;58.70;;;;;;;2.49;100.00;97698.69;109525;1251;64023;-69
2023/12/01 09:33:42;;;;;;;75.00;56.30;;;;;;;2.52;100.00;97695.16;109570;1251;59147;-69
2023/12/01 09:36:10;;;;;;;76.70;56.70;;;;;;;2.53;100.00;97702.16;109358;1251;59271;-70
2023/12/01 09:38:37;;;;;;;73.30;56.50;;;;;;;2.57;100.00;97703.33;109551;1251;67294;-69
2023/12/01 09:41:04;;;;;;;69.00;52.10;;;;;;;2.62;100.00;97701.44;109511;1251;61121;-69
2023/12/01 09:43:31;;;;;;;68.20;51.00;;;;;;;2.58;100.00;97709.36;109535;1251;64192;-69
2023/12/01 09:45:59;;;;;;;67.40;51.60;;;;;;;2.48;100.00;97714.00;109539;1251;59144;-69
2023/12/01 09:48:25;;;;;;;66.10;50.40;;;;;;;2.44;100.00;97702.99;109547;1251;58866;-69
2023/12/01 09:50:52;;;;;;;66.30;48.20;;;;;;;2.48;100.00;97702.44;109540;1251;66975;-69
2023/12/01 09:53:19;;;;;;;61.20;45.50;;;;;;;2.57;100.00;97702.97;109557;1250;61014;-69
2023/12/01 09:55:46;;;;;;;57.60;43.80;;;;;;;2.65;100.00;97708.66;109598;1251;64033;-69
2023/12/01 09:58:14;;;;;;;59.10;45.70;;;;;;;2.71;100.00;97702.89;108783;1251;1002993;-70
2023/12/01 10:00:40;;;;;;;60.70;44.40;;;;;;;2.80;100.00;97693.62;109543;1251;58847;-69
2023/12/01 10:03:07;;;;;;;62.90;45.70;;;;;;;2.93;100.00;97687.23;109551;1250;67100;-69
2023/12/01 10:05:34;;;;;;;59.80;44.30;;;;;;;3.08;100.00;97677.61;109567;1251;61007;-69
2023/12/01 10:08:01;;;;;;;54.40;41.70;;;;;;;3.20;100.00;97676.60;109569;1251;64101;-70
2023/12/01 10:10:28;;;;;;;59.10;41.70;;;;;;;3.27;100.00;97672.33;109526;1251;58984;-70
2023/12/01 10:13:04;;;;;;;56.30;41.30;;;;;;;3.34;100.00;97676.59;109557;1251;59149;-70
2023/12/01 10:15:33;;;;;;;55.60;40.70;;;;;;;3.39;100.00;97680.55;109540;1253;67073;-70
2023/12/01 10:18:11;;;;;;;53.50;40.40;;;;;;;3.46;100.00;97681.38;109568;1251;61053;-69
2023/12/01 10:20:42;;;;;;;57.50;41.40;;;;;;;3.57;100.00;97669.33;109601;1251;64709;-69
2023/12/01 10:23:16;;;;;;;55.70;40.70;;;;;;;3.70;100.00;97665.19;109530;1251;59091;-69
2023/12/01 10:25:48;;;;;;;57.80;40.90;;;;;;;3.82;100.00;97664.27;109503;1251;59097;-69
2023/12/01 10:28:19;;;;;;;51.00;39.90;;;;;;;3.88;100.00;97664.94;109578;1251;67020;-69
2023/12/01 10:30:52;;;;;;;52.40;36.70;;;;;;;3.89;100.00;97657.69;109568;1251;60137;-69
2023/12/01 10:33:20;;;;;;;58.70;41.80;;;;;;;3.89;100.00;97651.19;109575;1251;64108;-69
2023/12/01 10:36:02;;;;;;;48.30;37.90;;;;;;;3.87;100.00;97658.02;109525;1251;59051;-69
2023/12/01 10:38:30;;;;;;;53.50;40.80;;;;;;;3.79;100.00;97668.48;109601;1251;58877;-70
2023/12/01 10:40:58;;;;;;;57.50;41.30;;;;;;;3.78;100.00;97673.28;109538;1250;66957;-70
2023/12/01 10:43:27;;;;;;;60.40;42.60;;;;;;;3.79;100.00;97679.55;109586;1250;61086;-70
2023/12/01 10:45:57;;;;;;;63.80;46.00;;;;;;;3.77;100.00;97691.12;109613;1251;65348;-70
2023/12/01 10:48:27;;;;;;;60.80;42.80;;;;;;;3.69;100.00;97691.02;109543;1251;59034;-70
2023/12/01 10:50:54;;;;;;;60.10;42.60;;;;;;;3.66;100.00;97684.55;109549;1251;58936;-70
2023/12/01 10:53:24;;;;;;;57.30;42.10;;;;;;;3.65;100.00;97673.73;109520;1251;67026;-70
2023/12/01 10:55:54;;;;;;;58.90;43.20;;;;;;;3.67;100.00;97665.17;109551;1251;61032;-70
2023/12/01 10:58:22;;;;;;;61.10;46.00;;;;;;;3.69;100.00;97653.79;109583;1251;64104;-69
2023/12/01 11:00:50;;;;;;;63.80;45.70;;;;;;;3.74;100.00;97646.48;109546;1251;58999;-70